EGSC

Cambridge Airport

Cambridge, United Kingdom
METAR EGSC 191650Z 15009KT 9999 FEW040 25/08 Q1017
Observed Flight Rules
Jul-19 @ 16:50 UTC (8 hours ago) Visual Flight Rules
Wind Visibility Clouds
150° at 9 knots 10,000+ meters
  • Few at 4,000' AGL
Temperatures Readings
Current 25°C / 77°F
Dewpoint 8°C / 46°F
Humidity 34%
Altimeter 30.03" Hg
Pressure 1017 hPa
Elevation 15
METAR EGSC 191650Z 15009KT 9999 FEW040 25/08 Q1017
Observed Flight Rules
Jul-19 @ 16:50 UTC
(8 hours ago)
VFR
Wind Visibility
150° at 9 knots 10,000+ meters
Clouds
  • Few at 4,000' AGL
Temperature Dewpoint
25°C / 77°F 8°C / 46°F
Humidity Altimeter Pressure
34% 30.03" Hg 1017 hPa